Terminal Aerodrome Forecast
Issued by NWS

Home | Current Version | Previous Version | Text Only | Print | Product List | Glossary On
Versions: 1 2 3 4 5 6 7 8 9 10 11 12 13 14 15 16 17 18 19 20 21 22 23 24
649
FTUS42 KFFC 271303 AAA
TAFRYY
TAF AMD
KRYY 271303Z 2713/2812 21004KT P6SM SCT015
      TEMPO 2713/2714 BKN015
     FM271500 25008KT P6SM SCT040
     FM271800 26008KT P6SM SCT060 BKN120
     FM280200 25005KT P6SM SCT250=

USA.gov is the U.S. government's official web portal to all federal, state and local government web resources and services.